To NAV CANADA Home Page Login to a new session Search on AWWS site Disclaimer Vers la page française équivalente Tips FAQ What's new on the site To the Forecasts and Observations / NOTAM section To "File a Flight Plan" website Publications and other links Update of the User's profile FIC Telephone Numbers My Weather Data Folder Route Weather Data Regional Weather Data Local Weather Data To the Forecasts and Observations / NOTAM section
Request Generated 03/21/2019 at 01:51:09 UTC . Weather information available at that time is displayed.

METAR/TAF

HAMILTON/ON    

METAR CYHM 210100Z 22009KT 12SM -RA FEW023 OVC050 04/01 A3008 RMK SC2SC6 SLP197=
METAR CYHM 210000Z 21013KT 15SM -RA OVC035 06/M01 A3006 RMK SC8 PCPN VRY LGT SLP191=
METAR CYHM 202300Z 23003KT 15SM OVC071 07/M03 A3005 RMK AC8 SLP186=

TAF CYHM 202345Z 2100/2124 23005KT P6SM OVC070 TEMPO 2100/2101 P6SM
-RA OVC050
FM210100 21005KT P6SM -RA BKN030 OVC050
FM210400 18005KT 6SM -RA BR SCT015 OVC030 TEMPO 2104/2115 4SM -RA
BR BKN015 OVC030
FM211500 16008KT P6SM BKN025
FM211700 22008KT P6SM BKN020
RMK NXT FCST BY 210600Z=
Your time UTC time
Weather data provided by Environment Canada and NAV CANADA